sensor_id;sensor_type;location;lat;lon;timestamp;pressure;altitude;pressure_sealevel;temperature;humidity
54389;BME280;40975;50.390;8.640;2022-12-18T00:01:17;100460.34;;;-9.23;100.00
54389;BME280;40975;50.390;8.640;2022-12-18T00:03:43;100460.31;;;-9.29;100.00
54389;BME280;40975;50.390;8.640;2022-12-18T00:06:08;100468.06;;;-9.24;100.00
54389;BME280;40975;50.390;8.640;2022-12-18T00:08:34;100462.84;;;-9.32;100.00
54389;BME280;40975;50.390;8.640;2022-12-18T00:11:07;100460.31;;;-9.27;100.00
54389;BME280;40975;50.390;8.640;2022-12-18T00:13:34;100460.31;;;-9.27;100.00
54389;BME280;40975;50.390;8.640;2022-12-18T00:16:04;100449.13;;;-9.28;100.00
54389;BME280;40975;50.390;8.640;2022-12-18T00:18:30;100450.03;;;-9.29;100.00
54389;BME280;40975;50.390;8.640;2022-12-18T00:20:59;100449.19;;;-9.20;100.00
54389;BME280;40975;50.390;8.640;2022-12-18T00:23:26;100455.28;;;-9.09;100.00
54389;BME280;40975;50.390;8.640;2022-12-18T00:25:51;100456.09;;;-9.14;100.00
54389;BME280;40975;50.390;8.640;2022-12-18T00:28:16;100455.31;;;-9.06;100.00
54389;BME280;40975;50.390;8.640;2022-12-18T00:30:42;100444.13;;;-9.11;100.00
54389;BME280;40975;50.390;8.640;2022-12-18T00:33:07;100448.41;;;-9.11;100.00
54389;BME280;40975;50.390;8.640;2022-12-18T00:35:33;100450.97;;;-9.08;100.00
54389;BME280;40975;50.390;8.640;2022-12-18T00:37:58;100451.88;;;-9.03;100.00
54389;BME280;40975;50.390;8.640;2022-12-18T00:40:23;100449.28;;;-9.08;100.00
54389;BME280;40975;50.390;8.640;2022-12-18T00:42:49;100451.00;;;-9.07;100.00
54389;BME280;40975;50.390;8.640;2022-12-18T00:45:24;100453.59;;;-9.00;100.00
54389;BME280;40975;50.390;8.640;2022-12-18T00:47:50;100446.75;;;-9.01;100.00
54389;BME280;40975;50.390;8.640;2022-12-18T00:50:16;100452.72;;;-9.02;100.00
54389;BME280;40975;50.390;8.640;2022-12-18T00:52:42;100459.56;;;-9.09;100.00
54389;BME280;40975;50.390;8.640;2022-12-18T00:55:08;100465.50;;;-9.18;100.00
54389;BME280;40975;50.390;8.640;2022-12-18T00:57:34;100460.34;;;-9.23;100.00
54389;BME280;40975;50.390;8.640;2022-12-18T00:59:59;100459.44;;;-9.29;100.00
54389;BME280;40975;50.390;8.640;2022-12-18T01:02:24;100449.91;;;-9.38;100.00
54389;BME280;40975;50.390;8.640;2022-12-18T01:04:50;100461.06;;;-9.41;100.00
54389;BME280;40975;50.390;8.640;2022-12-18T01:07:18;100460.16;;;-9.44;100.00
54389;BME280;40975;50.390;8.640;2022-12-18T01:09:43;100466.97;;;-9.51;100.00
54389;BME280;40975;50.390;8.640;2022-12-18T01:12:09;100464.59;;;-9.25;100.00
54389;BME280;40975;50.390;8.640;2022-12-18T01:14:34;100464.59;;;-9.23;100.00
54389;BME280;40975;50.390;8.640;2022-12-18T01:16:59;100467.22;;;-9.22;100.00
54389;BME280;40975;50.390;8.640;2022-12-18T01:19:27;100480.03;;;-9.25;100.00
54389;BME280;40975;50.390;8.640;2022-12-18T01:21:53;100474.00;;;-9.30;100.00
54389;BME280;40975;50.390;8.640;2022-12-18T01:24:19;100481.69;;;-9.33;100.00
54389;BME280;40975;50.390;8.640;2022-12-18T01:26:44;100491.91;;;-9.41;100.00
54389;BME280;40975;50.390;8.640;2022-12-18T01:29:09;100492.59;;;-9.62;100.00
54389;BME280;40975;50.390;8.640;2022-12-18T01:31:34;100483.03;;;-9.77;100.00
54389;BME280;40975;50.390;8.640;2022-12-18T01:34:02;100492.44;;;-9.80;100.00
54389;BME280;40975;50.390;8.640;2022-12-18T01:36:33;100490.69;;;-9.81;100.00
54389;BME280;40975;50.390;8.640;2022-12-18T01:39:00;100489.81;;;-9.85;100.00
54389;BME280;40975;50.390;8.640;2022-12-18T01:41:28;100492.34;;;-9.90;100.00
54389;BME280;40975;50.390;8.640;2022-12-18T01:49:59;100475.81;;;-10.13;100.00
54389;BME280;40975;50.390;8.640;2022-12-18T01:52:29;100471.50;;;-10.13;100.00
54389;BME280;40975;50.390;8.640;2022-12-18T01:54:56;100470.66;;;-10.13;100.00
54389;BME280;40975;50.390;8.640;2022-12-18T01:57:23;100475.66;;;-10.26;100.00
54389;BME280;40975;50.390;8.640;2022-12-18T01:59:52;100471.28;;;-10.39;100.00
54389;BME280;40975;50.390;8.640;2022-12-18T02:02:18;100471.13;;;-10.50;100.00
54389;BME280;40975;50.390;8.640;2022-12-18T02:04:44;100471.75;;;-10.70;100.00
54389;BME280;40975;50.390;8.640;2022-12-18T02:10:01;100459.75;;;-10.74;100.00
54389;BME280;40975;50.390;8.640;2022-12-18T02:13:03;100450.16;;;-10.87;100.00
54389;BME280;40975;50.390;8.640;2022-12-18T02:16:05;100452.59;;;-10.95;100.00
54389;BME280;40975;50.390;8.640;2022-12-18T02:18:37;100454.13;;;-11.10;100.00
54389;BME280;40975;50.390;8.640;2022-12-18T02:21:08;100454.91;;;-11.14;100.00
54389;BME280;40975;50.390;8.640;2022-12-18T02:23:52;100456.56;;;-11.19;100.00
54389;BME280;40975;50.390;8.640;2022-12-18T02:26:27;100461.75;;;-11.14;100.00
54389;BME280;40975;50.390;8.640;2022-12-18T02:29:00;100461.72;;;-11.16;100.00
54389;BME280;40975;50.390;8.640;2022-12-18T02:31:31;100457.22;;;-11.31;100.00
54389;BME280;40975;50.390;8.640;2022-12-18T02:34:02;100448.00;;;-11.19;100.00
54389;BME280;40975;50.390;8.640;2022-12-18T02:36:37;100450.50;;;-11.22;100.00
54389;BME280;40975;50.390;8.640;2022-12-18T02:39:05;100448.81;;;-11.23;100.00
54389;BME280;40975;50.390;8.640;2022-12-18T02:41:35;100447.88;;;-11.27;100.00
54389;BME280;40975;50.390;8.640;2022-12-18T02:44:08;100459.97;;;-11.20;100.00
54389;BME280;40975;50.390;8.640;2022-12-18T02:46:42;100446.97;;;-11.31;100.00
54389;BME280;40975;50.390;8.640;2022-12-18T02:55:28;100469.38;;;-11.17;100.00
54389;BME280;40975;50.390;8.640;2022-12-18T02:58:05;100471.13;;;-11.16;100.00
54389;BME280;40975;50.390;8.640;2022-12-18T03:00:43;100461.75;;;-11.14;100.00
54389;BME280;40975;50.390;8.640;2022-12-18T03:03:22;100457.34;;;-11.21;100.00
54389;BME280;40975;50.390;8.640;2022-12-18T03:05:56;100468.38;;;-11.27;100.00
54389;BME280;40975;50.390;8.640;2022-12-18T03:08:27;100469.13;;;-11.34;100.00
54389;BME280;40975;50.390;8.640;2022-12-18T03:10:57;100475.91;;;-11.39;100.00
54389;BME280;40975;50.390;8.640;2022-12-18T03:13:32;100462.78;;;-11.58;100.00
54389;BME280;40975;50.390;8.640;2022-12-18T03:15:59;100459.41;;;-11.56;100.00
54389;BME280;40975;50.390;8.640;2022-12-18T03:18:34;100442.03;;;-11.75;100.00
54389;BME280;40975;50.390;8.640;2022-12-18T03:21:03;100458.31;;;-11.70;100.00
54389;BME280;40975;50.390;8.640;2022-12-18T03:23:35;100449.69;;;-11.75;100.00
54389;BME280;40975;50.390;8.640;2022-12-18T03:26:07;100454.59;;;-11.89;100.00
54389;BME280;40975;50.390;8.640;2022-12-18T03:28:40;100456.16;;;-11.97;100.00
54389;BME280;40975;50.390;8.640;2022-12-18T03:31:09;100456.28;;;-11.90;100.00
54389;BME280;40975;50.390;8.640;2022-12-18T03:33:51;100456.31;;;-11.88;100.00
54389;BME280;40975;50.390;8.640;2022-12-18T03:36:17;100452.88;;;-11.89;100.00
54389;BME280;40975;50.390;8.640;2022-12-18T03:38:43;100453.75;;;-11.88;100.00
54389;BME280;40975;50.390;8.640;2022-12-18T03:46:42;100454.84;;;-11.74;100.00
54389;BME280;40975;50.390;8.640;2022-12-18T03:49:12;100451.44;;;-11.73;100.00
54389;BME280;40975;50.390;8.640;2022-12-18T03:51:51;100445.47;;;-11.73;100.00
54389;BME280;40975;50.390;8.640;2022-12-18T03:54:18;100455.81;;;-11.67;100.00
54389;BME280;40975;50.390;8.640;2022-12-18T03:57:04;100453.09;;;-11.75;100.00
54389;BME280;40975;50.390;8.640;2022-12-18T03:59:34;100452.25;;;-11.75;100.00
54389;BME280;40975;50.390;8.640;2022-12-18T04:02:01;100456.66;;;-11.66;100.00
54389;BME280;40975;50.390;8.640;2022-12-18T04:04:30;100448.88;;;-11.74;100.00
54389;BME280;40975;50.390;8.640;2022-12-18T04:07:00;100454.09;;;-11.68;100.00
54389;BME280;40975;50.390;8.640;2022-12-18T04:09:27;100447.13;;;-11.75;100.00
54389;BME280;40975;50.390;8.640;2022-12-18T04:11:52;100457.19;;;-11.86;100.00
54389;BME280;40975;50.390;8.640;2022-12-18T04:14:18;100446.09;;;-11.87;100.00
54389;BME280;40975;50.390;8.640;2022-12-18T04:16:48;100451.19;;;-11.88;100.00
54389;BME280;40975;50.390;8.640;2022-12-18T04:19:15;100452.03;;;-11.89;100.00
54389;BME280;40975;50.390;8.640;2022-12-18T04:21:43;100451.28;;;-11.83;100.00
54389;BME280;40975;50.390;8.640;2022-12-18T04:24:10;100449.41;;;-11.92;100.00
54389;BME280;40975;50.390;8.640;2022-12-18T04:26:39;100444.22;;;-11.95;100.00
54389;BME280;40975;50.390;8.640;2022-12-18T04:29:12;100445.91;;;-11.99;100.00
54389;BME280;40975;50.390;8.640;2022-12-18T04:31:37;100443.16;;;-12.10;100.00
54389;BME280;40975;50.390;8.640;2022-12-18T04:34:04;100447.53;;;-12.04;100.00
54389;BME280;40975;50.390;8.640;2022-12-18T04:36:35;100440.53;;;-12.14;100.00
54389;BME280;40975;50.390;8.640;2022-12-18T04:39:00;100437.06;;;-12.15;100.00
54389;BME280;40975;50.390;8.640;2022-12-18T04:41:26;100437.97;;;-12.14;100.00
54389;BME280;40975;50.390;8.640;2022-12-18T04:43:52;100418.94;;;-12.27;100.00
54389;BME280;40975;50.390;8.640;2022-12-18T04:46:18;100446.47;;;-12.15;100.00
54389;BME280;40975;50.390;8.640;2022-12-18T04:48:45;100450.00;;;-12.09;100.00
54389;BME280;40975;50.390;8.640;2022-12-18T04:51:11;100436.47;;;-12.03;100.00
54389;BME280;40975;50.390;8.640;2022-12-18T04:53:38;100439.78;;;-12.07;100.00
54389;BME280;40975;50.390;8.640;2022-12-18T04:56:08;100449.19;;;-12.06;100.00
54389;BME280;40975;50.390;8.640;2022-12-18T04:58:35;100449.94;;;-12.13;100.00
54389;BME280;40975;50.390;8.640;2022-12-18T05:01:01;100458.38;;;-12.17;100.00
54389;BME280;40975;50.390;8.640;2022-12-18T05:03:26;100438.06;;;-12.08;100.00
54389;BME280;40975;50.390;8.640;2022-12-18T05:05:52;100435.56;;;-12.05;100.00
54389;BME280;40975;50.390;8.640;2022-12-18T05:08:18;100447.41;;;-12.10;100.00
54389;BME280;40975;50.390;8.640;2022-12-18T05:10:43;100439.72;;;-12.10;100.00
54389;BME280;40975;50.390;8.640;2022-12-18T05:13:09;100448.19;;;-12.14;100.00
54389;BME280;40975;50.390;8.640;2022-12-18T05:15:34;100455.97;;;-12.08;100.00
54389;BME280;40975;50.390;8.640;2022-12-18T05:18:00;100450.69;;;-12.19;100.00
54389;BME280;40975;50.390;8.640;2022-12-18T05:20:26;100456.63;;;-12.20;100.00
54389;BME280;40975;50.390;8.640;2022-12-18T05:22:51;100455.72;;;-12.22;100.00
54389;BME280;40975;50.390;8.640;2022-12-18T05:25:17;100453.97;;;-12.25;100.00
54389;BME280;40975;50.390;8.640;2022-12-18T05:27:43;100458.03;;;-12.36;100.00
54389;BME280;40975;50.390;8.640;2022-12-18T05:30:09;100464.91;;;-12.32;100.00
54389;BME280;40975;50.390;8.640;2022-12-18T05:32:35;100454.50;;;-12.41;100.00
54389;BME280;40975;50.390;8.640;2022-12-18T05:35:00;100448.78;;;-12.29;100.00
54389;BME280;40975;50.390;8.640;2022-12-18T05:37:26;100454.00;;;-12.22;100.00
54389;BME280;40975;50.390;8.640;2022-12-18T05:39:51;100430.94;;;-12.25;100.00
54389;BME280;40975;50.390;8.640;2022-12-18T05:42:16;100441.53;;;-12.06;100.00
54389;BME280;40975;50.390;8.640;2022-12-18T05:44:43;100457.66;;;-12.10;100.00
54389;BME280;40975;50.390;8.640;2022-12-18T05:47:08;100460.09;;;-12.16;100.00
54389;BME280;40975;50.390;8.640;2022-12-18T05:49:33;100453.41;;;-12.08;100.00
54389;BME280;40975;50.390;8.640;2022-12-18T05:51:59;100462.06;;;-12.01;100.00
54389;BME280;40975;50.390;8.640;2022-12-18T05:54:27;100461.13;;;-12.07;100.00
54389;BME280;40975;50.390;8.640;2022-12-18T05:56:52;100455.91;;;-12.11;100.00
54389;BME280;40975;50.390;8.640;2022-12-18T05:59:18;100450.75;;;-12.14;100.00
54389;BME280;40975;50.390;8.640;2022-12-18T06:01:43;100461.91;;;-12.11;100.00
54389;BME280;40975;50.390;8.640;2022-12-18T06:04:08;100462.81;;;-12.07;100.00
54389;BME280;40975;50.390;8.640;2022-12-18T06:06:33;100463.59;;;-12.11;100.00
54389;BME280;40975;50.390;8.640;2022-12-18T06:08:59;100472.25;;;-12.06;100.00
54389;BME280;40975;50.390;8.640;2022-12-18T06:11:26;100468.94;;;-11.99;100.00
54389;BME280;40975;50.390;8.640;2022-12-18T06:13:53;100465.31;;;-12.10;100.00
54389;BME280;40975;50.390;8.640;2022-12-18T06:16:19;100470.03;;;-12.32;100.00
54389;BME280;40975;50.390;8.640;2022-12-18T06:18:44;100470.94;;;-12.30;100.00
54389;BME280;40975;50.390;8.640;2022-12-18T06:21:09;100477.84;;;-12.26;100.00
54389;BME280;40975;50.390;8.640;2022-12-18T06:23:35;100488.97;;;-12.24;100.00
54389;BME280;40975;50.390;8.640;2022-12-18T06:26:07;100477.91;;;-12.23;100.00
54389;BME280;40975;50.390;8.640;2022-12-18T06:28:32;100475.38;;;-12.21;100.00
54389;BME280;40975;50.390;8.640;2022-12-18T06:30:57;100471.09;;;-12.22;100.00
54389;BME280;40975;50.390;8.640;2022-12-18T06:33:28;100473.56;;;-12.25;100.00
54389;BME280;40975;50.390;8.640;2022-12-18T06:35:54;100465.88;;;-12.27;100.00
54389;BME280;40975;50.390;8.640;2022-12-18T06:38:19;100475.44;;;-12.18;100.00
54389;BME280;40975;50.390;8.640;2022-12-18T06:40:45;100471.91;;;-12.25;100.00
54389;BME280;40975;50.390;8.640;2022-12-18T06:43:10;100471.00;;;-12.27;100.00
54389;BME280;40975;50.390;8.640;2022-12-18T06:45:35;100485.53;;;-12.24;100.00
54389;BME280;40975;50.390;8.640;2022-12-18T06:48:01;100485.44;;;-12.29;100.00
54389;BME280;40975;50.390;8.640;2022-12-18T06:50:26;100488.00;;;-12.30;100.00
54389;BME280;40975;50.390;8.640;2022-12-18T06:52:51;100492.09;;;-12.39;100.00
54389;BME280;40975;50.390;8.640;2022-12-18T06:55:17;100492.84;;;-12.43;100.00
54389;BME280;40975;50.390;8.640;2022-12-18T06:57:42;100492.59;;;-12.55;100.00
54389;BME280;40975;50.390;8.640;2022-12-18T07:00:08;100492.78;;;-12.46;100.00
54389;BME280;40975;50.390;8.640;2022-12-18T07:02:33;100492.75;;;-12.49;100.00
54389;BME280;40975;50.390;8.640;2022-12-18T07:04:59;100502.34;;;-12.39;100.00
54389;BME280;40975;50.390;8.640;2022-12-18T07:07:24;100504.81;;;-12.43;100.00
54389;BME280;40975;50.390;8.640;2022-12-18T07:09:50;100508.31;;;-12.38;100.00
54389;BME280;40975;50.390;8.640;2022-12-18T07:12:16;100503.16;;;-12.40;100.00
54389;BME280;40975;50.390;8.640;2022-12-18T07:14:41;100510.78;;;-12.41;100.00
54389;BME280;40975;50.390;8.640;2022-12-18T07:17:06;100510.88;;;-12.38;100.00
54389;BME280;40975;50.390;8.640;2022-12-18T07:19:32;100509.28;;;-12.33;100.00
54389;BME280;40975;50.390;8.640;2022-12-18T07:21:58;100504.19;;;-12.31;100.00
54389;BME280;40975;50.390;8.640;2022-12-18T07:24:23;100504.28;;;-12.27;100.00
54389;BME280;40975;50.390;8.640;2022-12-18T07:26:48;100514.63;;;-12.21;100.00
54389;BME280;40975;50.390;8.640;2022-12-18T07:29:14;100507.00;;;-12.19;100.00
54389;BME280;40975;50.390;8.640;2022-12-18T07:31:39;100498.59;;;-12.10;100.00
54389;BME280;40975;50.390;8.640;2022-12-18T07:34:04;100495.22;;;-12.09;100.00
54389;BME280;40975;50.390;8.640;2022-12-18T07:36:30;100497.00;;;-12.05;100.00
54389;BME280;40975;50.390;8.640;2022-12-18T07:38:55;100494.47;;;-12.02;100.00
54389;BME280;40975;50.390;8.640;2022-12-18T07:41:21;100508.28;;;-11.94;100.00
54389;BME280;40975;50.390;8.640;2022-12-18T07:43:46;100510.13;;;-11.87;100.00
54389;BME280;40975;50.390;8.640;2022-12-18T07:46:13;100504.19;;;-11.84;100.00
54389;BME280;40975;50.390;8.640;2022-12-18T07:48:42;100497.38;;;-11.82;100.00
54389;BME280;40975;50.390;8.640;2022-12-18T07:51:07;100507.72;;;-11.77;100.00
54389;BME280;40975;50.390;8.640;2022-12-18T07:53:33;100496.78;;;-11.68;100.00
54389;BME280;40975;50.390;8.640;2022-12-18T07:56:04;100508.66;;;-11.72;100.00
54389;BME280;40975;50.390;8.640;2022-12-18T07:58:31;100501.03;;;-11.67;100.00
54389;BME280;40975;50.390;8.640;2022-12-18T08:01:10;100516.63;;;-11.57;100.00
54389;BME280;40975;50.390;8.640;2022-12-18T08:03:36;100507.38;;;-11.47;100.00
54389;BME280;40975;50.390;8.640;2022-12-18T08:06:03;100498.09;;;-11.40;100.00
54389;BME280;40975;50.390;8.640;2022-12-18T08:08:29;100499.97;;;-11.30;100.00
54389;BME280;40975;50.390;8.640;2022-12-18T08:10:55;100490.66;;;-11.23;100.00
54389;BME280;40975;50.390;8.640;2022-12-18T08:13:20;100495.94;;;-11.12;100.00
54389;BME280;40975;50.390;8.640;2022-12-18T08:15:46;100488.31;;;-11.07;100.00
54389;BME280;40975;50.390;8.640;2022-12-18T08:18:11;100489.38;;;-10.95;100.00
54389;BME280;40975;50.390;8.640;2022-12-18T08:20:37;100493.81;;;-10.84;100.00
54389;BME280;40975;50.390;8.640;2022-12-18T08:23:02;100492.25;;;-10.73;100.00
54389;BME280;40975;50.390;8.640;2022-12-18T08:25:27;100480.34;;;-10.66;100.00
54389;BME280;40975;50.390;8.640;2022-12-18T08:27:53;100475.47;;;-10.46;100.00
54389;BME280;40975;50.390;8.640;2022-12-18T08:30:18;100476.44;;;-10.32;100.00
54389;BME280;40975;50.390;8.640;2022-12-18T08:32:44;100477.53;;;-10.12;100.00
54389;BME280;40975;50.390;8.640;2022-12-18T08:35:09;100485.38;;;-9.97;100.00
54389;BME280;40975;50.390;8.640;2022-12-18T08:37:36;100477.00;;;-9.79;100.00
54389;BME280;40975;50.390;8.640;2022-12-18T08:40:02;100471.16;;;-9.64;100.00
54389;BME280;40975;50.390;8.640;2022-12-18T08:42:27;100473.06;;;-9.41;100.00
54389;BME280;40975;50.390;8.640;2022-12-18T08:45:11;100474.00;;;-9.27;100.00
54389;BME280;40975;50.390;8.640;2022-12-18T08:47:37;100466.38;;;-9.13;100.00
54389;BME280;40975;50.390;8.640;2022-12-18T08:50:02;100458.69;;;-9.11;100.00
54389;BME280;40975;50.390;8.640;2022-12-18T08:52:28;100463.94;;;-8.97;100.00
54389;BME280;40975;50.390;8.640;2022-12-18T08:54:53;100457.13;;;-8.91;100.00
54389;BME280;40975;50.390;8.640;2022-12-18T08:57:18;100451.22;;;-8.69;100.00
54389;BME280;40975;50.390;8.640;2022-12-18T08:59:44;100451.28;;;-8.54;100.00
54389;BME280;40975;50.390;8.640;2022-12-18T09:02:11;100450.44;;;-8.37;100.00
54389;BME280;40975;50.390;8.640;2022-12-18T09:04:36;100444.56;;;-7.76;100.00
54389;BME280;40975;50.390;8.640;2022-12-18T09:07:01;100442.69;;;-6.61;100.00
54389;BME280;40975;50.390;8.640;2022-12-18T09:09:27;100447.19;;;-5.54;100.00
54389;BME280;40975;50.390;8.640;2022-12-18T09:11:52;100439.59;;;-4.79;100.00
54389;BME280;40975;50.390;8.640;2022-12-18T09:14:17;100441.41;;;-3.56;96.11
54389;BME280;40975;50.390;8.640;2022-12-18T09:16:43;100445.94;;;-2.25;88.36
54389;BME280;40975;50.390;8.640;2022-12-18T09:19:09;100443.06;;;-0.71;81.78
54389;BME280;40975;50.390;8.640;2022-12-18T09:21:35;100441.25;;;1.00;73.72
54389;BME280;40975;50.390;8.640;2022-12-18T09:24:00;100448.03;;;2.25;67.47
54389;BME280;40975;50.390;8.640;2022-12-18T09:26:26;100460.25;;;3.11;63.88
54389;BME280;40975;50.390;8.640;2022-12-18T09:28:52;100453.09;;;3.55;60.89
54389;BME280;40975;50.390;8.640;2022-12-18T09:31:20;100456.09;;;4.04;59.00
54389;BME280;40975;50.390;8.640;2022-12-18T09:33:45;100457.91;;;4.41;59.93
54389;BME280;40975;50.390;8.640;2022-12-18T09:36:13;100449.22;;;4.39;59.18
54389;BME280;40975;50.390;8.640;2022-12-18T09:38:39;100453.44;;;4.43;57.63
54389;BME280;40975;50.390;8.640;2022-12-18T09:43:50;100463.31;;;3.80;59.66
54389;BME280;40975;50.390;8.640;2022-12-18T09:46:23;100451.31;;;4.49;58.75
54389;BME280;40975;50.390;8.640;2022-12-18T09:48:52;100453.34;;;5.32;57.14
54389;BME280;40975;50.390;8.640;2022-12-18T09:51:26;100457.41;;;4.32;56.19
54389;BME280;40975;50.390;8.640;2022-12-18T09:53:58;100441.09;;;4.26;58.05
54389;BME280;40975;50.390;8.640;2022-12-18T09:56:28;100461.75;;;3.17;61.80
54389;BME280;40975;50.390;8.640;2022-12-18T09:58:58;100460.00;;;2.75;61.54
54389;BME280;40975;50.390;8.640;2022-12-18T10:01:24;100453.78;;;2.77;62.77
54389;BME280;40975;50.390;8.640;2022-12-18T10:03:50;100459.78;;;2.59;64.53
54389;BME280;40975;50.390;8.640;2022-12-18T10:06:32;100455.69;;;2.74;63.49
54389;BME280;40975;50.390;8.640;2022-12-18T10:12:17;100471.66;;;1.77;66.07
54389;BME280;40975;50.390;8.640;2022-12-18T10:14:58;100460.81;;;2.98;65.92
54389;BME280;40975;50.390;8.640;2022-12-18T10:20:16;100447.44;;;3.64;62.24
54389;BME280;40975;50.390;8.640;2022-12-18T10:28:08;100459.19;;;2.52;60.85
54389;BME280;40975;50.390;8.640;2022-12-18T10:30:35;100461.53;;;1.92;62.36
54389;BME280;40975;50.390;8.640;2022-12-18T10:33:02;100449.06;;;1.98;65.53
54389;BME280;40975;50.390;8.640;2022-12-18T10:35:28;100447.72;;;1.88;66.26
54389;BME280;40975;50.390;8.640;2022-12-18T10:38:04;100445.22;;;1.85;62.59
54389;BME280;40975;50.390;8.640;2022-12-18T10:40:29;100433.16;;;1.08;68.15
54389;BME280;40975;50.390;8.640;2022-12-18T10:43:10;100409.47;;;0.08;72.63
54389;BME280;40975;50.390;8.640;2022-12-18T10:45:36;100430.50;;;-0.56;77.71
54389;BME280;40975;50.390;8.640;2022-12-18T10:48:03;100435.69;;;-0.88;80.79
54389;BME280;40975;50.390;8.640;2022-12-18T10:50:31;100431.97;;;-1.11;81.05
54389;BME280;40975;50.390;8.640;2022-12-18T10:52:59;100437.00;;;-1.39;82.31
54389;BME280;40975;50.390;8.640;2022-12-18T10:55:31;100426.22;;;-1.60;85.50
54389;BME280;40975;50.390;8.640;2022-12-18T10:58:13;100438.91;;;-1.83;86.55
54389;BME280;40975;50.390;8.640;2022-12-18T11:00:41;100438.63;;;-1.71;87.12
54389;BME280;40975;50.390;8.640;2022-12-18T11:04:00;100440.63;;;-1.81;86.42
54389;BME280;40975;50.390;8.640;2022-12-18T11:06:20;100441.19;;;-2.07;90.07
54389;BME280;40975;50.390;8.640;2022-12-18T11:09:26;100442.94;;;-2.48;87.78
54389;BME280;40975;50.390;8.640;2022-12-18T11:11:50;100446.06;;;-2.32;88.36
54389;BME280;40975;50.390;8.640;2022-12-18T11:14:26;100437.59;;;-2.85;87.14
54389;BME280;40975;50.390;8.640;2022-12-18T11:16:53;100435.47;;;-2.66;88.78
54389;BME280;40975;50.390;8.640;2022-12-18T11:21:54;100427.25;;;-2.89;88.24
54389;BME280;40975;50.390;8.640;2022-12-18T11:24:28;100425.88;;;-3.07;88.13
54389;BME280;40975;50.390;8.640;2022-12-18T11:26:57;100430.63;;;-2.84;88.79
54389;BME280;40975;50.390;8.640;2022-12-18T11:29:36;100422.59;;;-3.19;86.85
54389;BME280;40975;50.390;8.640;2022-12-18T11:34:41;100404.28;;;-3.61;87.73
54389;BME280;40975;50.390;8.640;2022-12-18T11:37:11;100401.78;;;-3.69;88.53
54389;BME280;40975;50.390;8.640;2022-12-18T11:39:49;100406.50;;;-3.94;90.00
54389;BME280;40975;50.390;8.640;2022-12-18T11:42:30;100405.97;;;-4.15;89.58
54389;BME280;40975;50.390;8.640;2022-12-18T11:45:02;100407.03;;;-3.70;90.90
54389;BME280;40975;50.390;8.640;2022-12-18T11:47:59;100412.13;;;-3.66;90.36
54389;BME280;40975;50.390;8.640;2022-12-18T11:50:53;100416.84;;;-3.91;92.01
54389;BME280;40975;50.390;8.640;2022-12-18T11:53:19;100416.56;;;-3.71;91.01
54389;BME280;40975;50.390;8.640;2022-12-18T11:55:51;100409.06;;;-3.91;90.82
54389;BME280;40975;50.390;8.640;2022-12-18T12:01:07;100406.44;;;-4.50;94.40
54389;BME280;40975;50.390;8.640;2022-12-18T12:06:54;100414.84;;;-5.05;98.04
54389;BME280;40975;50.390;8.640;2022-12-18T12:12:28;100408.69;;;-4.94;99.54
54389;BME280;40975;50.390;8.640;2022-12-18T12:20:49;100401.00;;;-5.04;100.00
54389;BME280;40975;50.390;8.640;2022-12-18T12:23:32;100403.50;;;-4.96;100.00
54389;BME280;40975;50.390;8.640;2022-12-18T12:26:06;100406.22;;;-5.07;100.00
54389;BME280;40975;50.390;8.640;2022-12-18T12:28:45;100400.94;;;-4.99;100.00
54389;BME280;40975;50.390;8.640;2022-12-18T12:39:11;100393.81;;;-4.78;100.00
54389;BME280;40975;50.390;8.640;2022-12-18T12:41:40;100384.47;;;-4.90;100.00
54389;BME280;40975;50.390;8.640;2022-12-18T12:44:29;100381.03;;;-4.92;100.00
54389;BME280;40975;50.390;8.640;2022-12-18T12:46:59;100376.78;;;-4.96;100.00
54389;BME280;40975;50.390;8.640;2022-12-18T12:49:31;100373.59;;;-5.23;100.00
54389;BME280;40975;50.390;8.640;2022-12-18T12:52:37;100385.66;;;-5.22;100.00
54389;BME280;40975;50.390;8.640;2022-12-18T12:55:12;100374.53;;;-5.31;100.00
54389;BME280;40975;50.390;8.640;2022-12-18T12:57:47;100376.22;;;-5.28;100.00
54389;BME280;40975;50.390;8.640;2022-12-18T13:00:16;100392.66;;;-5.34;100.00
54389;BME280;40975;50.390;8.640;2022-12-18T13:03:08;100390.19;;;-5.44;100.00
54389;BME280;40975;50.390;8.640;2022-12-18T13:05:48;100393.63;;;-5.39;100.00
54389;BME280;40975;50.390;8.640;2022-12-18T13:08:53;100390.31;;;-5.55;100.00
54389;BME280;40975;50.390;8.640;2022-12-18T13:11:35;100398.03;;;-5.54;100.00
54389;BME280;40975;50.390;8.640;2022-12-18T13:14:21;100395.34;;;-5.41;100.00
54389;BME280;40975;50.390;8.640;2022-12-18T13:16:47;100386.00;;;-5.56;100.00
54389;BME280;40975;50.390;8.640;2022-12-18T13:19:22;100377.31;;;-5.49;100.00
54389;BME280;40975;50.390;8.640;2022-12-18T13:21:53;100375.50;;;-5.41;100.00
54389;BME280;40975;50.390;8.640;2022-12-18T13:24:30;100372.91;;;-5.39;100.00
54389;BME280;40975;50.390;8.640;2022-12-18T13:26:56;100379.81;;;-5.43;100.00
54389;BME280;40975;50.390;8.640;2022-12-18T13:29:47;100379.00;;;-5.45;100.00
54389;BME280;40975;50.390;8.640;2022-12-18T13:32:21;100372.97;;;-5.49;100.00
54389;BME280;40975;50.390;8.640;2022-12-18T13:34:46;100378.97;;;-5.40;100.00
54389;BME280;40975;50.390;8.640;2022-12-18T13:37:51;100372.19;;;-5.55;100.00
54389;BME280;40975;50.390;8.640;2022-12-18T13:45:47;100377.47;;;-5.68;100.00
54389;BME280;40975;50.390;8.640;2022-12-18T13:48:24;100376.69;;;-5.76;100.00
54389;BME280;40975;50.390;8.640;2022-12-18T13:51:03;100377.53;;;-5.74;100.00
54389;BME280;40975;50.390;8.640;2022-12-18T13:53:33;100381.75;;;-5.65;100.00
54389;BME280;40975;50.390;8.640;2022-12-18T13:55:59;100378.28;;;-5.63;100.00
54389;BME280;40975;50.390;8.640;2022-12-18T13:58:24;100371.31;;;-5.53;100.00